رشت, ایران

12:30 AM IRDT on ژوئیه 25, 2014 (GMT +0430)
Rasht (OIGG) Elev -30 ft | 37.33 °N, 49.61 °E | Change Station

Current weather conditions updated 1 hour ago

Clear
صاف
75 °F
Feels Like 75 °F
N
0
باد متغير باد from شمال

Today is forecast to be Warmer than yesterday.

امروز
High -- | Low -- °F
--% Chance of Precip.
دیروز
High -- | Low -- °F
Precip. -- در
6:10 AM 8:25 PM
Waning Crescent, 4% visible
فشار 29.71 در
ديد -9999.0 مايل، ميل (در برابر كيلومتر
ابری
قطره شبنم 72 °F
رطوبت 89%
بارش باران 0.00 در
برف عمیق Not available.
مادون قرمز Not available.
Pollen Not available.
تمیزی هوا Not available.
Flu Activity Not available.
METAR OIGG 241900Z 00000KT CAVOK 24/22 Q1006

More Conditions Fewer Conditions

فشار 29.71 در
ديد -9999.0 مايل، ميل (در برابر كيلومتر
ابری
قطره شبنم 72 °F
رطوبت 89%
بارش باران 0.00 در
برف عمیق Not available.
مادون قرمز Not available.
Pollen Not available.
تمیزی هوا Not available.
Flu Activity Not available.
METAR OIGG 241900Z 00000KT CAVOK 24/22 Q1006

More Conditions Fewer Conditions

10-Day Weather Forecast

Almanac

ستاره شناسی

Jul. 25, 2014 Rise Set
وقت حقیقی 6:10 AM IRDT 8:25 PM IRDT
تاریک و روشن اجتماعی 5:40 AM IRDT 8:55 PM IRDT
تاریک روشن دریایی 5:04 AM IRDT 9:31 PM IRDT
شفق و فلق نجومی 4:24 AM IRDT 10:10 PM IRDT
ماه 4:48 AM IRDT (7/25) 7:07 PM IRDT (7/25)
میزان روشنایی روز 15h 14m
طول روز
14h 15m
Tomorrow will be 1m 36s shorter.
Waning Crescent, 4% of the Moon is Illuminated
Jul 24
Waning Crescent
Jul 26
New
Aug 3
ربع اول
Aug 10
ماه کامل
Aug 17
ربع آخر

Yesterday's Extremes

Country Highs Country Lows

Community

WunderPhotos

Upload Photos

1,737,107 photos uploaded!

Nearby

تمیزی هوا

Not available.

عمق برف

Not available.

Earthquake Activity

شهر Distance Mag. Time & Date
No recent earthquake activity has been reported nearby.
Minimum magnitude displayed is 2.5.

Coastal Water Temperatures

منطقه درجه حرارت
No Stations Reporting

Nearby Weather Stations

There are no personal weather stations in this area.